createdAt,value
2023-01-13T00:03:54.926Z,100011.16
2023-01-13T00:06:53.265Z,100006.81
2023-01-13T00:09:31.213Z,100032.16
2023-01-13T00:12:22.488Z,100018.25
2023-01-13T00:15:21.771Z,100001.78
2023-01-13T00:18:16.657Z,100000.94
2023-01-13T00:21:13.250Z,99997.47
2023-01-13T00:24:09.698Z,100014.91
2023-01-13T00:26:41.127Z,100013.22
2023-01-13T00:29:12.014Z,100012.34
2023-01-13T00:32:08.154Z,100005.38
2023-01-13T00:34:51.044Z,100012.34
2023-01-13T00:37:30.538Z,99993.22
2023-01-13T00:40:18.428Z,100001.97
2023-01-13T00:45:52.845Z,100013.31
2023-01-13T00:48:40.807Z,100013.31
2023-01-13T00:51:15.842Z,100005.50
2023-01-13T00:53:51.356Z,100018.50
2023-01-13T00:56:39.757Z,100008.97
2023-01-13T00:59:16.253Z,100009.81
2023-01-13T01:02:03.606Z,99989.03
2023-01-13T01:04:51.959Z,99994.22
2023-01-13T01:07:25.361Z,100023.81
2023-01-13T01:10:04.688Z,99998.59
2023-01-13T01:12:40.625Z,99996.88
2023-01-13T01:15:17.924Z,99989.91
2023-01-13T01:17:49.476Z,99995.16
2023-01-13T01:20:36.744Z,99993.44
2023-01-13T01:23:07.902Z,99983.88
2023-01-13T01:28:21.727Z,100007.38
2023-01-13T01:31:10.403Z,99972.59
2023-01-13T01:33:48.664Z,99984.75
2023-01-13T01:36:26.780Z,99978.69
2023-01-13T01:38:59.077Z,100006.47
2023-01-13T01:41:34.258Z,100005.63
2023-01-13T01:44:09.869Z,100018.69
2023-01-13T01:46:44.757Z,100009.16
2023-01-13T01:49:25.948Z,99991.75
2023-01-13T01:52:16.695Z,99997.84
2023-01-13T01:55:05.365Z,100007.38
2023-01-13T01:57:47.295Z,99995.25
2023-01-13T02:00:37.302Z,100044.78
2023-01-13T02:09:24.127Z,100001.34
2023-01-13T02:12:15.657Z,100003.06
2023-01-13T02:14:50.712Z,100003.94
2023-01-13T02:17:44.741Z,99987.41
2023-01-13T02:21:32.032Z,100003.06
2023-01-13T02:25:06.469Z,100006.53
2023-01-13T02:28:00.908Z,100005.63
2023-01-13T02:31:13.976Z,100001.25
2023-01-13T02:34:11.555Z,100018.63
2023-01-13T02:36:52.680Z,99990.78
2023-01-13T02:39:51.617Z,99970.81
2023-01-13T02:42:51.539Z,99989.03
2023-01-13T02:48:34.412Z,99990.81
2023-01-13T02:51:19.840Z,99979.53
2023-01-13T02:54:21.873Z,99984.75
2023-01-13T02:57:04.292Z,99980.41
2023-01-13T02:59:42.231Z,99962.16
2023-01-13T03:02:18.726Z,99955.19
2023-01-13T03:05:05.870Z,99963.91
2023-01-13T03:08:30.737Z,99958.69
2023-01-13T03:11:17.143Z,99934.34
2023-01-13T03:14:40.247Z,99920.44
2023-01-13T03:17:25.901Z,99952.59
2023-01-13T03:20:08.603Z,99951.75
2023-01-13T03:23:08.073Z,99953.50
2023-01-13T03:25:53.551Z,99936.97
2023-01-13T03:28:30.035Z,99929.16
2023-01-13T03:31:27.627Z,99935.22
2023-01-13T03:34:07.553Z,99931.75
2023-01-13T03:36:40.859Z,99908.28
2023-01-13T03:39:56.638Z,99924.81
2023-01-13T03:42:31.787Z,99912.59
2023-01-13T03:45:10.287Z,99928.28
2023-01-13T03:48:02.244Z,99937.84
2023-01-13T03:50:39.876Z,99923.94
2023-01-13T03:56:23.013Z,99923.91
2023-01-13T03:59:06.076Z,99929.16
2023-01-13T04:02:19.298Z,99896.13
2023-01-13T04:05:05.500Z,99925.69
2023-01-13T04:07:50.422Z,99903.91
2023-01-13T04:10:37.729Z,99909.16
2023-01-13T04:13:21.599Z,99884.78
2023-01-13T04:16:06.459Z,99914.34
2023-01-13T04:18:43.532Z,99929.13
2023-01-13T04:21:15.519Z,99937.84
2023-01-13T04:23:46.914Z,99913.47
2023-01-13T04:26:50.255Z,99908.22
2023-01-13T04:29:20.941Z,99878.69
2023-01-13T04:31:52.017Z,99913.47
2023-01-13T04:34:20.771Z,99910.88
2023-01-13T04:36:49.653Z,99913.44
2023-01-13T04:39:26.261Z,99912.56
2023-01-13T04:42:15.028Z,99915.19
2023-01-13T04:44:46.313Z,99921.25
2023-01-13T04:47:17.460Z,99921.25
2023-01-13T04:49:46.184Z,99916.03
2023-01-13T04:52:17.632Z,99922.13
2023-01-13T04:54:46.460Z,99896.06
2023-01-13T04:57:16.565Z,99910.84
2023-01-13T04:59:45.266Z,99909.97
2023-01-13T05:02:19.884Z,99912.59
2023-01-13T05:04:49.288Z,99919.56
2023-01-13T05:08:28.388Z,99894.34
2023-01-13T05:14:25.799Z,99903.78
2023-01-13T05:17:04.451Z,99911.59
2023-01-13T05:19:39.373Z,99913.31
2023-01-13T05:22:26.082Z,99906.34
2023-01-13T05:25:15.460Z,99892.44
2023-01-13T05:27:49.791Z,99897.59
2023-01-13T05:30:22.512Z,99892.34
2023-01-13T05:32:51.301Z,99906.28
2023-01-13T05:35:22.425Z,99891.50
2023-01-13T05:37:51.571Z,99893.19
2023-01-13T05:40:38.668Z,99898.38
2023-01-13T05:43:24.908Z,99904.47
2023-01-13T05:46:08.627Z,99907.06
2023-01-13T05:48:41.659Z,99891.38
2023-01-13T05:51:46.557Z,99888.75
2023-01-13T05:54:29.978Z,99891.38
2023-01-13T05:57:00.076Z,99893.97
2023-01-13T05:59:29.799Z,99868.78
2023-01-13T06:01:59.835Z,99888.78
2023-01-13T06:07:27.421Z,99897.50
2023-01-13T06:10:00.467Z,99880.13
2023-01-13T06:12:32.246Z,99880.09
2023-01-13T06:15:01.421Z,99876.63
2023-01-13T06:17:37.563Z,99892.31
2023-01-13T06:20:09.811Z,99887.94
2023-01-13T06:22:55.873Z,99875.75
2023-01-13T06:25:41.613Z,99892.28
2023-01-13T06:33:53.538Z,99892.34
2023-01-13T06:36:30.563Z,99891.41
2023-01-13T06:39:07.168Z,99889.72
2023-01-13T06:41:54.532Z,99900.13
2023-01-13T06:44:25.175Z,99895.75
2023-01-13T06:46:54.233Z,99886.22
2023-01-13T06:49:24.257Z,99894.91
2023-01-13T06:51:55.852Z,99900.97
2023-01-13T06:54:27.711Z,99860.09
2023-01-13T06:57:15.965Z,99879.25
2023-01-13T06:59:45.085Z,99875.75
2023-01-13T07:02:14.000Z,99891.44
2023-01-13T07:05:00.731Z,99901.88
2023-01-13T07:07:45.844Z,99883.56
2023-01-13T07:10:27.196Z,99896.66
2023-01-13T07:13:25.659Z,99894.91
2023-01-13T07:19:02.359Z,99904.53
2023-01-13T07:21:39.231Z,99878.50
2023-01-13T07:26:56.782Z,99877.66
2023-01-13T07:29:30.564Z,99904.63
2023-01-13T07:32:02.347Z,99912.50
2023-01-13T07:34:31.489Z,99922.97
2023-01-13T07:37:03.585Z,99916.06
2023-01-13T07:39:35.237Z,99911.75
2023-01-13T07:42:21.476Z,99950.88
2023-01-13T07:45:12.376Z,99931.78
2023-01-13T07:48:27.150Z,99929.19
2023-01-13T07:51:26.919Z,99927.47
2023-01-13T07:54:02.144Z,99937.91
2023-01-13T07:56:30.937Z,99946.59
2023-01-13T07:59:16.573Z,99941.38
2023-01-13T08:01:55.420Z,99932.69
2023-01-13T08:04:24.536Z,99938.78
2023-01-13T08:06:53.366Z,99923.13
2023-01-13T08:09:37.469Z,99943.97
2023-01-13T08:12:52.220Z,99945.75
2023-01-13T08:15:35.941Z,99924.88
2023-01-13T08:18:05.998Z,99930.97
2023-01-13T08:20:37.171Z,99937.06
2023-01-13T08:25:51.881Z,99961.38
2023-01-13T08:28:24.859Z,99946.63
2023-01-13T08:33:43.269Z,99935.31
2023-01-13T08:36:19.437Z,99957.06
2023-01-13T08:39:03.790Z,99941.41
2023-01-13T08:42:08.961Z,99960.50
2023-01-13T08:45:03.906Z,99943.13
2023-01-13T08:47:53.078Z,99957.03
2023-01-13T08:50:51.083Z,99950.97
2023-01-13T08:53:57.240Z,99958.78
2023-01-13T08:56:54.417Z,99969.19
2023-01-13T08:59:50.544Z,99976.16
2023-01-13T09:05:17.695Z,99977.00
2023-01-13T09:08:11.279Z,99967.44
2023-01-13T09:11:29.121Z,99976.13
2023-01-13T09:17:41.585Z,99970.06
2023-01-13T09:20:49.111Z,99957.91
2023-01-13T09:23:45.297Z,99975.28
2023-01-13T09:26:46.205Z,99958.75
2023-01-13T09:29:29.378Z,99983.94
2023-01-13T09:35:04.787Z,100003.09
2023-01-13T09:37:57.676Z,100010.06
2023-01-13T09:40:26.730Z,100023.13
2023-01-13T09:43:21.084Z,100022.25
2023-01-13T09:46:07.590Z,100020.50
2023-01-13T09:48:56.619Z,100023.97
2023-01-13T09:51:35.358Z,100028.31
2023-01-13T09:54:20.084Z,100018.75
2023-01-13T09:59:55.022Z,100024.84
2023-01-13T10:02:55.444Z,100018.75
2023-01-13T10:05:43.660Z,100017.03
2023-01-13T10:12:03.340Z,100017.00
2023-01-13T10:18:25.027Z,100017.88
2023-01-13T10:21:52.995Z,100033.53
2023-01-13T10:28:44.383Z,100027.44
2023-01-13T10:31:26.137Z,100051.81
2023-01-13T10:38:09.310Z,100043.09
2023-01-13T10:41:03.101Z,100053.56
2023-01-13T10:44:02.511Z,100051.81
2023-01-13T10:47:12.359Z,100046.56
2023-01-13T10:50:45.213Z,100051.81
2023-01-13T10:54:17.688Z,100036.13
2023-01-13T10:57:01.018Z,100047.44
2023-01-13T11:00:04.383Z,100048.31
2023-01-13T11:02:49.995Z,100064.84
2023-01-13T11:06:00.476Z,100042.25
2023-01-13T11:08:48.024Z,100044.84
2023-01-13T11:11:58.497Z,100064.00
2023-01-13T11:15:20.230Z,100052.69
2023-01-13T11:18:08.150Z,100057.91
2023-01-13T11:21:03.778Z,100048.34
2023-01-13T11:23:51.509Z,100046.56
2023-01-13T11:26:50.123Z,100080.53
2023-01-13T11:30:08.478Z,100078.78
2023-01-13T11:32:59.102Z,100070.94
2023-01-13T11:35:41.358Z,100079.66
2023-01-13T11:38:47.919Z,100050.94
2023-01-13T11:42:39.227Z,100059.63
2023-01-13T11:45:33.008Z,100077.94
2023-01-13T11:52:16.079Z,100088.34
2023-01-13T11:55:31.438Z,100095.31
2023-01-13T11:58:50.816Z,100103.13
2023-01-13T12:02:04.636Z,100089.19
2023-01-13T12:04:56.393Z,100103.13
2023-01-13T12:07:59.793Z,100089.22
2023-01-13T12:11:06.426Z,100111.84
2023-01-13T12:14:06.210Z,100120.53
2023-01-13T12:16:54.231Z,100117.03
2023-01-13T12:19:42.650Z,100078.72
2023-01-13T12:22:27.983Z,100104.84
2023-01-13T12:25:13.676Z,100119.66
2023-01-13T12:27:57.909Z,100098.78
2023-01-13T12:31:11.450Z,100107.47
2023-01-13T12:35:06.880Z,100070.94
2023-01-13T12:38:11.387Z,100111.81
2023-01-13T12:41:17.340Z,100115.28
2023-01-13T12:48:05.283Z,100112.69
2023-01-13T12:51:29.405Z,100107.47
2023-01-13T13:02:10.188Z,100124.00
2023-01-13T13:06:18.776Z,100135.31
2023-01-13T13:09:49.099Z,100137.91
2023-01-13T13:13:23.818Z,100150.09
2023-01-13T13:16:48.483Z,100150.94
2023-01-13T13:23:29.983Z,100157.91
2023-01-13T13:26:44.880Z,100180.53
2023-01-13T13:29:56.027Z,100177.91
2023-01-13T13:33:23.152Z,100177.94
2023-01-13T13:36:17.227Z,100165.78
2023-01-13T13:40:14.165Z,100183.19
2023-01-13T13:43:13.232Z,100190.13
2023-01-13T13:47:09.163Z,100212.75
2023-01-13T13:57:18.181Z,100198.72
2023-01-13T14:00:17.768Z,100214.28
2023-01-13T14:03:22.457Z,100221.22
2023-01-13T14:06:45.600Z,100207.28
2023-01-13T14:09:53.255Z,100189.03
2023-01-13T14:13:15.459Z,100228.25
2023-01-13T14:16:11.078Z,100237.81
2023-01-13T14:19:27.952Z,100202.03
2023-01-13T14:22:27.420Z,100242.19
2023-01-13T14:28:55.826Z,100194.31
2023-01-13T14:35:04.295Z,100261.53
2023-01-13T14:38:18.027Z,100254.59
2023-01-13T14:44:37.303Z,100266.78
2023-01-13T14:48:05.592Z,100269.38
2023-01-13T14:51:16.598Z,100280.69
2023-01-13T14:54:07.716Z,100265.00
2023-01-13T14:57:02.188Z,100263.28
2023-01-13T15:00:02.953Z,100285.00
2023-01-13T15:02:58.568Z,100293.72
2023-01-13T15:09:00.899Z,100314.56
2023-01-13T15:12:50.517Z,100319.72
2023-01-13T15:16:05.120Z,100332.81
2023-01-13T15:19:41.177Z,100361.53
2023-01-13T15:22:58.417Z,100354.59
2023-01-13T15:26:01.070Z,100358.97
2023-01-13T15:28:50.050Z,100368.53
2023-01-13T15:31:59.332Z,100384.13
2023-01-13T15:35:28.427Z,100394.50
2023-01-13T15:38:09.684Z,100431.09
2023-01-13T15:48:10.826Z,100402.34
2023-01-13T15:51:03.564Z,100433.69
2023-01-13T15:54:06.476Z,100428.56
2023-01-13T15:57:30.506Z,100406.84
2023-01-13T16:00:53.271Z,100418.22
2023-01-13T16:04:27.956Z,100430.41
2023-01-13T16:07:33.394Z,100433.09
2023-01-13T16:10:20.547Z,100412.16
2023-01-13T16:13:31.714Z,100452.28
2023-01-13T16:16:24.109Z,100423.56
2023-01-13T16:26:33.221Z,100461.88
2023-01-13T16:29:19.749Z,100461.81
2023-01-13T16:31:55.789Z,100453.94
2023-01-13T16:34:28.485Z,100475.75
2023-01-13T16:36:57.409Z,100487.94
2023-01-13T16:39:28.856Z,100491.44
2023-01-13T16:42:16.230Z,100541.94
2023-01-13T16:45:42.152Z,100501.78
2023-01-13T16:48:44.301Z,100505.16
2023-01-13T16:52:12.016Z,100504.28
2023-01-13T16:59:44.230Z,100532.81
2023-01-13T17:06:35.149Z,100573.72
2023-01-13T17:09:22.555Z,100565.84
2023-01-13T17:12:08.754Z,100561.50
2023-01-13T17:14:54.286Z,100595.44
2023-01-13T17:17:28.033Z,100587.56
2023-01-13T17:20:03.157Z,100586.66
2023-01-13T17:22:47.489Z,100586.59
2023-01-13T17:25:44.858Z,100616.19
2023-01-13T17:29:01.020Z,100632.69
2023-01-13T17:32:05.274Z,100621.38
2023-01-13T17:34:54.032Z,100621.31
2023-01-13T17:37:52.221Z,100616.88
2023-01-13T17:41:03.317Z,100620.41
2023-01-13T17:43:39.229Z,100636.09
2023-01-13T17:47:09.668Z,100638.75
2023-01-13T17:49:50.326Z,100638.75
2023-01-13T17:52:30.262Z,100642.22
2023-01-13T17:55:38.879Z,100631.63
2023-01-13T17:58:12.718Z,100644.81
2023-01-13T18:00:49.209Z,100636.16
2023-01-13T18:03:28.461Z,100633.59
2023-01-13T18:06:19.467Z,100639.69
2023-01-13T18:09:01.328Z,100644.88
2023-01-13T18:11:52.681Z,100641.44
2023-01-13T18:14:32.179Z,100650.97
2023-01-13T18:17:26.204Z,100677.94
2023-01-13T18:20:29.660Z,100645.72
2023-01-13T18:23:45.450Z,100656.00
2023-01-13T18:26:45.129Z,100693.47
2023-01-13T18:29:40.690Z,100675.22
2023-01-13T18:32:21.825Z,100694.41
2023-01-13T18:35:05.279Z,100679.63
2023-01-13T18:37:54.786Z,100704.03
2023-01-13T18:40:29.591Z,100703.19
2023-01-13T18:43:01.789Z,100708.44
2023-01-13T18:45:45.066Z,100697.97
2023-01-13T18:48:15.104Z,100697.03
2023-01-13T18:50:46.727Z,100710.16
2023-01-13T18:53:17.643Z,100727.63
2023-01-13T18:55:51.503Z,100744.16
2023-01-13T18:58:30.178Z,100711.97
2023-01-13T19:01:03.648Z,100746.03
2023-01-13T19:03:32.676Z,100728.56
2023-01-13T19:06:09.224Z,100739.25
2023-01-13T19:08:41.748Z,100753.16
2023-01-13T19:11:12.440Z,100750.75
2023-01-13T19:13:42.358Z,100756.00
2023-01-13T19:16:14.421Z,100756.97
2023-01-13T19:18:43.158Z,100756.97
2023-01-13T19:21:13.519Z,100751.78
2023-01-13T19:23:45.041Z,100752.63
2023-01-13T19:26:14.735Z,100769.19
2023-01-13T19:28:44.878Z,100777.81
2023-01-13T19:31:17.232Z,100783.16
2023-01-13T19:33:47.424Z,100777.84
2023-01-13T19:36:15.924Z,100791.84
2023-01-13T19:38:46.105Z,100818.97
2023-01-13T19:41:35.060Z,100804.13
2023-01-13T19:44:20.822Z,100814.56
2023-01-13T19:46:49.368Z,100806.75
2023-01-13T19:49:25.593Z,100819.00
2023-01-13T19:52:01.334Z,100832.16
2023-01-13T19:54:32.754Z,100817.25
2023-01-13T19:57:25.252Z,100848.63
2023-01-13T19:59:54.961Z,100853.81
2023-01-13T20:02:41.054Z,100839.88
2023-01-13T20:08:08.922Z,100846.81
2023-01-13T20:11:20.869Z,100855.66
2023-01-13T20:13:52.587Z,100886.91
2023-01-13T20:16:24.243Z,100883.88
2023-01-13T20:19:06.468Z,100927.31
2023-01-13T20:21:49.833Z,100918.25
2023-01-13T20:27:25.096Z,100938.56
2023-01-13T20:29:57.717Z,100947.94
2023-01-13T20:32:43.752Z,100954.81
2023-01-13T20:35:49.799Z,100951.28
2023-01-13T20:38:44.470Z,100954.56
2023-01-13T20:41:33.032Z,100933.59
2023-01-13T20:44:04.196Z,100925.63
2023-01-13T20:46:49.278Z,100951.66
2023-01-13T20:49:20.517Z,100924.41
2023-01-13T20:52:31.895Z,100945.09
2023-01-13T20:55:03.058Z,100931.91
2023-01-13T20:57:42.266Z,100925.44
2023-01-13T21:00:40.289Z,100946.41
2023-01-13T21:03:22.401Z,100955.03
2023-01-13T21:05:53.783Z,100940.94
2023-01-13T21:08:49.835Z,100959.38
2023-01-13T21:15:10.931Z,100972.56
2023-01-13T21:18:07.476Z,100960.31
2023-01-13T21:20:45.326Z,100975.19
2023-01-13T21:23:15.802Z,100966.41
2023-01-13T21:25:46.764Z,100984.84
2023-01-13T21:28:22.460Z,100983.03
2023-01-13T21:30:54.155Z,100991.94
2023-01-13T21:33:30.114Z,100991.94
2023-01-13T21:36:06.941Z,101016.47
2023-01-13T21:38:42.974Z,100995.66
2023-01-13T21:41:37.163Z,101013.09
2023-01-13T21:44:28.357Z,101019.28
2023-01-13T21:47:19.696Z,101000.88
2023-01-13T21:49:59.896Z,101036.84
2023-01-13T21:52:39.328Z,101049.91
2023-01-13T21:55:43.991Z,101030.75
2023-01-13T21:58:34.310Z,101043.13
2023-01-13T22:07:26.192Z,101053.72
2023-01-13T22:09:59.780Z,101055.47
2023-01-13T22:12:29.811Z,101051.97
2023-01-13T22:14:58.663Z,101044.88
2023-01-13T22:17:32.522Z,101070.97
2023-01-13T22:20:02.545Z,101070.09
2023-01-13T22:22:44.510Z,101050.91
2023-01-13T22:25:20.414Z,101057.84
2023-01-13T22:27:54.217Z,101060.38
2023-01-13T22:30:51.333Z,101076.09
2023-01-13T22:33:40.407Z,101066.34
2023-01-13T22:39:08.230Z,101085.66
2023-01-13T22:41:45.622Z,101076.03
2023-01-13T22:44:15.787Z,101058.34
2023-01-13T22:46:53.108Z,101105.59
2023-01-13T22:49:23.192Z,101098.56
2023-01-13T22:51:52.531Z,101097.44
2023-01-13T22:54:23.416Z,101101.84
2023-01-13T22:57:03.813Z,101080.66
2023-01-13T22:59:33.425Z,101101.53
2023-01-13T23:02:07.282Z,101111.91
2023-01-13T23:04:51.270Z,101102.38
2023-01-13T23:07:45.735Z,101096.19
2023-01-13T23:10:25.485Z,101098.03
2023-01-13T23:12:56.930Z,101095.47
2023-01-13T23:18:11.502Z,101113.06
2023-01-13T23:20:40.385Z,101112.34
2023-01-13T23:26:33.727Z,101111.59
2023-01-13T23:31:56.229Z,101105.59
2023-01-13T23:34:27.052Z,101106.44
2023-01-13T23:36:55.676Z,101111.59
2023-01-13T23:39:35.240Z,101104.56
2023-01-13T23:42:37.997Z,101111.28
2023-01-13T23:45:19.006Z,101092.00
2023-01-13T23:48:03.918Z,101115.63
